Time;durP1;ratioP1;P1;durP2;ratioP2;P2;SDS_P1;SDS_P2;PMS_P1;PMS_P2;Temp;Humidity;BMP_temperature;BMP_pressure;BME280_temperature;BME280_humidity;BME280_pressure;Samples;Min_cycle;Max_cycle;Signal;HPM_P1;HPM_P2
2022/07/06 00:00:53;;;;;;;;;3.67;3.67;;;;;20.81;43.29;101839.53;5078689;27;45651;-65
2022/07/06 00:03:18;;;;;;;;;6.33;4.33;;;;;20.81;43.13;101834.19;5077718;27;45455;-64
2022/07/06 00:05:44;;;;;;;;;6.00;4.00;;;;;20.79;43.34;101834.25;5078134;27;45868;-64
2022/07/06 00:08:09;;;;;;;;;3.00;3.00;;;;;20.76;42.72;101837.09;5077801;27;45561;-64
2022/07/06 00:10:35;;;;;;;;;3.00;3.00;;;;;20.74;43.41;101831.00;5078405;27;45418;-64
2022/07/06 00:13:00;;;;;;;;;3.00;3.00;;;;;20.70;43.60;101832.97;5078257;27;45473;-67
2022/07/06 00:15:25;;;;;;;;;3.00;3.00;;;;;20.68;43.87;101831.34;5078277;27;47112;-64
2022/07/06 00:17:51;;;;;;;;;4.00;3.00;;;;;20.67;43.59;101830.50;5078051;27;45448;-64
2022/07/06 00:20:16;;;;;;;;;2.00;2.00;;;;;20.67;44.04;101830.50;5078301;27;45724;-64
2022/07/06 00:22:42;;;;;;;;;4.00;4.00;;;;;20.65;43.91;101831.53;5065508;27;45486;-64
2022/07/06 00:25:08;;;;;;;;;4.00;4.00;;;;;20.63;44.17;101830.75;5077438;28;46033;-64
2022/07/06 00:27:33;;;;;;;;;3.00;3.00;;;;;20.63;44.30;101828.09;5076925;28;45410;-64
2022/07/06 00:29:58;;;;;;;;;2.00;2.00;;;;;20.65;43.72;101826.19;5078058;27;45387;-64
2022/07/06 00:32:25;;;;;;;;;4.00;4.00;;;;;20.63;44.68;101826.28;5078018;27;45442;-64
2022/07/06 00:34:50;;;;;;;;;4.00;3.33;;;;;20.63;44.18;101818.28;5077684;27;45549;-65
2022/07/06 00:37:16;;;;;;;;;4.00;4.00;;;;;20.65;43.97;101831.53;5077669;27;45426;-63
2022/07/06 00:39:41;;;;;;;;;4.00;4.00;;;;;20.66;44.16;101830.56;5058373;27;45946;-63
2022/07/06 00:42:07;;;;;;;;;2.00;2.00;;;;;20.64;44.36;101829.81;5057491;28;45401;-63
2022/07/06 00:44:33;;;;;;;;;6.00;6.00;;;;;20.62;44.43;101823.69;5057230;28;46240;-64
2022/07/06 00:46:59;;;;;;;;;3.00;3.00;;;;;20.62;44.26;101831.72;5063158;28;45445;-64
2022/07/06 00:52:09;;;;;;;;;4.00;4.00;;;;;20.60;44.88;101821.09;5057457;28;45441;-63
2022/07/06 00:54:35;;;;;;;;;5.00;5.00;;;;;20.58;44.40;101824.81;5057088;28;45363;-65
2022/07/06 00:57:01;;;;;;;;;4.00;4.00;;;;;20.57;44.37;101818.59;5057110;28;45496;-65
2022/07/06 00:59:28;;;;;;;;;4.00;4.00;;;;;20.55;44.29;101817.81;5057276;28;45442;-65
2022/07/06 01:01:53;;;;;;;;;6.67;4.00;;;;;20.54;44.47;101820.59;5057335;28;45652;-65
2022/07/06 01:04:19;;;;;;;;;5.00;5.00;;;;;20.51;44.40;101825.13;5055449;28;46353;-62
2022/07/06 01:06:47;;;;;;;;;5.00;5.00;;;;;20.51;44.78;101826.97;5055952;28;45569;-63
2022/07/06 01:09:13;;;;;;;;;5.00;5.00;;;;;20.49;44.86;101828.84;5057181;28;45513;-63
2022/07/06 01:11:39;;;;;;;;;3.00;3.00;;;;;20.48;44.86;101827.13;5057335;28;45402;-65
2022/07/06 01:14:05;;;;;;;;;4.67;4.67;;;;;20.46;45.02;101823.69;5056706;28;46261;-65
2022/07/06 01:16:31;;;;;;;;;5.33;5.33;;;;;20.46;45.09;101824.53;5058637;28;45421;-63
2022/07/06 01:18:56;;;;;;;;;4.00;4.00;;;;;20.45;44.84;101827.31;5076287;27;45443;-63
2022/07/06 01:21:22;;;;;;;;;4.00;4.00;;;;;20.43;44.93;101837.22;5077154;27;45566;-63
2022/07/06 01:23:47;;;;;;;;;4.33;4.33;;;;;20.40;45.44;101830.25;5075071;27;45927;-63
2022/07/06 01:26:19;;;;;;;;;4.33;4.33;;;;;20.41;45.03;101831.97;5076764;27;45395;-63
2022/07/06 01:28:45;;;;;;;;;5.00;5.00;;;;;20.39;44.72;101836.56;5077288;27;45464;-63
2022/07/06 01:31:24;;;;;;;;;5.67;5.67;;;;;20.36;45.52;101834.03;5077035;27;45444;-63
2022/07/06 01:33:51;;;;;;;;;5.00;5.00;;;;;20.32;45.54;101840.50;5076705;27;45375;-64
2022/07/06 01:36:17;;;;;;;;;3.67;3.67;;;;;20.29;45.41;101836.19;5076855;27;45379;-64
2022/07/06 01:38:46;;;;;;;;;4.33;3.33;;;;;20.30;45.21;101832.56;5058523;27;45382;-63
2022/07/06 01:41:12;;;;;;;;;4.67;4.67;;;;;20.29;45.84;101824.66;5056516;28;45396;-63
2022/07/06 01:43:38;;;;;;;;;4.00;4.00;;;;;20.29;45.45;101832.66;5072610;28;46068;-64
2022/07/06 01:46:03;;;;;;;;;4.00;4.00;;;;;20.29;45.94;101832.66;5056453;28;45398;-64
2022/07/06 01:48:28;;;;;;;;;4.33;3.33;;;;;20.28;45.25;101833.59;5056545;28;45385;-64
2022/07/06 01:50:54;;;;;;;;;5.33;5.00;;;;;20.28;45.96;101833.59;5056594;28;45432;-64
2022/07/06 01:53:19;;;;;;;;;5.00;4.00;;;;;20.26;45.56;101835.53;5056639;28;45441;-64
2022/07/06 01:55:44;;;;;;;;;5.33;5.00;;;;;20.26;45.57;101838.19;5056195;28;45494;-63
2022/07/06 01:58:10;;;;;;;;;4.00;3.33;;;;;20.25;45.77;101831.09;5056948;28;45374;-64
2022/07/06 02:00:35;;;;;;;;;6.33;5.33;;;;;20.24;45.52;101832.91;5076638;27;45375;-63
2022/07/06 02:03:00;;;;;;;;;3.00;3.00;;;;;20.22;45.97;101829.47;5076074;27;46331;-64
2022/07/06 02:05:26;;;;;;;;;3.00;3.00;;;;;20.19;45.83;101828.78;5075865;27;48156;-64
2022/07/06 02:07:51;;;;;;;;;4.00;4.00;;;;;20.14;45.87;101837.03;5076387;27;45322;-63
2022/07/06 02:10:17;;;;;;;;;7.00;4.00;;;;;20.11;46.04;101836.38;5060859;27;45380;-63
2022/07/06 02:12:42;;;;;;;;;4.00;4.00;;;;;20.10;45.95;101840.00;5055542;28;45392;-64
2022/07/06 02:15:08;;;;;;;;;4.00;4.00;;;;;20.08;46.59;101837.41;5055873;28;45480;-64
2022/07/06 02:17:33;;;;;;;;;5.00;5.00;;;;;20.05;46.03;101841.09;5056235;28;45446;-64
2022/07/06 02:19:58;;;;;;;;;5.00;4.00;;;;;20.06;45.81;101836.63;5056272;28;45562;-64
2022/07/06 02:22:24;;;;;;;;;4.00;4.00;;;;;20.08;45.86;101829.38;5055881;28;46294;-63
2022/07/06 02:24:49;;;;;;;;;5.67;5.00;;;;;20.05;46.16;101835.75;5056039;28;45530;-63
2022/07/06 02:27:14;;;;;;;;;5.33;5.00;;;;;20.03;46.07;101840.31;5056258;28;45374;-63
2022/07/06 02:29:40;;;;;;;;;6.00;4.00;;;;;20.00;46.35;101835.16;5056573;28;45369;-63
2022/07/06 02:32:05;;;;;;;;;5.00;5.00;;;;;19.99;46.77;101832.59;5059416;28;47365;-64
2022/07/06 02:34:31;;;;;;;;;6.00;5.00;;;;;20.00;46.37;101823.59;5066548;28;45501;-64
2022/07/06 02:36:56;;;;;;;;;5.00;5.00;;;;;20.01;46.14;101822.66;5079875;27;45443;-64
2022/07/06 02:39:21;;;;;;;;;4.67;4.67;;;;;20.02;45.94;101822.56;5079845;27;45417;-64
2022/07/06 02:41:47;;;;;;;;;5.00;4.67;;;;;20.02;45.94;101817.25;5079461;27;45418;-64
2022/07/06 02:44:12;;;;;;;;;6.33;5.33;;;;;20.01;46.82;101819.97;5079800;27;45516;-64
2022/07/06 02:46:37;;;;;;;;;5.00;5.00;;;;;20.01;46.06;101822.66;5079687;27;45468;-64
2022/07/06 02:49:03;;;;;;;;;5.00;5.00;;;;;19.98;46.29;101820.16;5073788;27;45587;-64
2022/07/06 02:51:28;;;;;;;;;5.67;5.67;;;;;19.94;46.57;101827.47;5058569;28;46881;-63
2022/07/06 02:53:53;;;;;;;;;4.67;4.67;;;;;19.95;46.45;101833.69;5058987;28;45563;-64
2022/07/06 02:56:19;;;;;;;;;4.00;4.00;;;;;19.95;46.99;101837.22;5059153;28;45544;-63
2022/07/06 02:58:44;;;;;;;;;5.00;4.33;;;;;19.97;46.00;101843.34;5059464;28;45359;-64
2022/07/06 03:01:09;;;;;;;;;5.00;5.00;;;;;19.96;46.46;101846.06;5061178;28;46028;-63
2022/07/06 03:03:35;;;;;;;;;4.33;4.33;;;;;19.99;46.81;101848.59;5079170;27;45574;-63
2022/07/06 03:06:00;;;;;;;;;4.33;4.33;;;;;19.98;46.04;101847.72;5079453;27;45450;-64
2022/07/06 03:08:25;;;;;;;;;5.33;5.33;;;;;19.97;46.44;101845.16;5079418;27;45382;-64
2022/07/06 03:10:51;;;;;;;;;6.67;6.67;;;;;19.95;46.18;101847.88;5079269;27;45541;-64
2022/07/06 03:13:16;;;;;;;;;5.00;5.00;;;;;19.95;46.51;101853.22;5076378;27;45440;-64
2022/07/06 03:15:42;;;;;;;;;4.00;4.00;;;;;19.93;46.66;101857.78;5058903;28;45472;-64
2022/07/06 03:18:07;;;;;;;;;5.00;5.00;;;;;19.91;46.62;101857.03;5058805;28;45501;-64
2022/07/06 03:20:32;;;;;;;;;6.00;6.00;;;;;19.93;46.61;101860.44;5058916;28;46236;-64
2022/07/06 03:22:58;;;;;;;;;6.00;5.00;;;;;19.90;46.80;101859.78;5058860;28;45542;-64
2022/07/06 03:25:23;;;;;;;;;8.67;7.00;;;;;19.91;46.38;101856.13;5058771;28;45442;-64
2022/07/06 03:27:48;;;;;;;;;5.00;5.00;;;;;19.91;46.62;101861.47;5059123;28;45484;-64
2022/07/06 03:30:14;;;;;;;;;5.00;5.00;;;;;19.90;46.96;101851.75;5078851;27;46028;-64
2022/07/06 03:32:39;;;;;;;;;6.00;6.00;;;;;19.88;46.63;101854.53;5078697;27;45410;-64
2022/07/06 03:35:06;;;;;;;;;5.33;5.33;;;;;19.85;46.39;101858.22;5078796;27;45421;-63
2022/07/06 03:37:32;;;;;;;;;6.33;6.00;;;;;19.86;47.09;101864.44;5078402;27;45604;-63
2022/07/06 03:39:57;;;;;;;;;5.00;5.00;;;;;19.82;46.52;101860.19;5078261;28;45951;-63
2022/07/06 03:42:22;;;;;;;;;3.33;3.33;;;;;19.84;47.18;101867.16;5065446;27;45433;-63
2022/07/06 03:44:48;;;;;;;;;5.33;5.33;;;;;19.81;46.81;101875.34;5058326;28;45386;-63
2022/07/06 03:47:13;;;;;;;;;6.00;5.00;;;;;19.75;47.36;101866.81;5058358;28;45350;-66
2022/07/06 03:49:38;;;;;;;;;5.67;5.67;;;;;19.77;47.26;101862.22;5058321;28;46129;-63
2022/07/06 03:52:04;;;;;;;;;6.00;6.00;;;;;19.72;46.95;101865.16;5058372;28;45375;-63
2022/07/06 03:54:30;;;;;;;;;4.00;4.00;;;;;19.71;47.25;101868.75;5058240;28;45475;-63
2022/07/06 03:56:56;;;;;;;;;7.00;7.00;;;;;19.74;47.17;101873.94;5074351;28;45306;-63
2022/07/06 03:59:21;;;;;;;;;7.33;7.33;;;;;19.72;47.37;101873.19;5077089;28;46999;-63
2022/07/06 04:01:46;;;;;;;;;5.67;5.67;;;;;19.73;47.05;101868.69;5078437;27;45398;-64
2022/07/06 04:04:12;;;;;;;;;6.67;5.33;;;;;19.78;47.05;101867.50;5078375;27;45460;-64
2022/07/06 04:06:38;;;;;;;;;6.67;6.67;;;;;19.79;47.14;101873.69;5078362;27;45466;-63
2022/07/06 04:09:03;;;;;;;;;8.00;7.00;;;;;19.75;47.36;101870.34;5078368;27;45500;-63
2022/07/06 04:11:29;;;;;;;;;7.00;7.00;;;;;19.76;47.64;101881.88;5062881;28;47197;-63
2022/07/06 04:13:55;;;;;;;;;4.33;4.33;;;;;19.67;47.31;101880.56;5057899;28;45473;-63
2022/07/06 04:16:20;;;;;;;;;6.33;6.33;;;;;19.59;48.16;101877.41;5058132;28;45544;-66
2022/07/06 04:18:46;;;;;;;;;5.00;5.00;;;;;19.61;47.85;101883.50;5073722;28;47301;-63
2022/07/06 04:21:11;;;;;;;;;4.67;4.67;;;;;19.59;48.32;101885.41;5058147;28;45481;-63
2022/07/06 04:23:36;;;;;;;;;7.67;7.67;;;;;19.58;48.18;101883.66;5076495;28;45549;-63
2022/07/06 04:26:02;;;;;;;;;10.67;8.00;;;;;19.59;48.49;101883.59;5078204;27;45434;-63
2022/07/06 04:28:27;;;;;;;;;6.00;6.00;;;;;19.60;48.30;101887.13;5076789;28;45429;-63
2022/07/06 04:30:53;;;;;;;;;7.33;7.33;;;;;19.51;48.88;101892.97;5077760;27;45519;-63
2022/07/06 04:33:18;;;;;;;;;7.33;5.67;;;;;19.43;48.51;101883.53;5077477;28;45466;-63
2022/07/06 04:35:44;;;;;;;;;6.67;6.67;;;;;19.48;48.86;101885.97;5077724;27;45382;-63
2022/07/06 04:38:09;;;;;;;;;7.33;7.33;;;;;19.47;48.45;101881.56;5077716;27;45973;-63
2022/07/06 04:40:34;;;;;;;;;7.00;7.00;;;;;19.45;49.03;101885.25;5077770;27;45490;-63
2022/07/06 04:43:00;;;;;;;;;7.00;7.00;;;;;19.39;48.82;101884.63;5077837;27;45369;-63
2022/07/06 04:45:26;;;;;;;;;8.00;7.00;;;;;19.42;48.69;101875.59;5076298;28;45603;-63
2022/07/06 04:47:51;;;;;;;;;8.00;8.00;;;;;19.42;48.83;101880.94;5077233;28;45372;-63
2022/07/06 04:50:16;;;;;;;;;7.33;7.33;;;;;19.46;48.61;101884.34;5077406;27;45306;-63
2022/07/06 04:52:42;;;;;;;;;7.33;6.67;;;;;19.49;48.53;101881.50;5059001;27;45320;-63
2022/07/06 04:55:08;;;;;;;;;6.33;6.33;;;;;19.52;48.34;101881.34;5056298;28;45312;-64
2022/07/06 04:57:34;;;;;;;;;7.00;7.00;;;;;19.52;48.44;101886.66;5056726;28;46317;-64
2022/07/06 04:59:59;;;;;;;;;7.00;7.00;;;;;19.48;48.41;101888.66;5056678;28;45397;-64
2022/07/06 05:02:24;;;;;;;;;8.00;8.00;;;;;19.45;48.80;101885.25;5056222;28;45433;-64
2022/07/06 05:04:50;;;;;;;;;8.00;8.00;;;;;19.44;48.70;101884.41;5056672;28;45579;-64
2022/07/06 05:07:15;;;;;;;;;8.00;8.00;;;;;19.51;48.98;101885.81;5056492;28;45520;-63
2022/07/06 05:09:41;;;;;;;;;6.00;6.00;;;;;19.55;48.99;101883.84;5056113;28;45495;-63
2022/07/06 05:12:07;;;;;;;;;7.00;7.00;;;;;19.51;49.10;101891.16;5056741;28;45484;-64
2022/07/06 05:14:33;;;;;;;;;6.00;6.00;;;;;19.43;49.39;101888.03;5056139;28;45501;-64
2022/07/06 05:16:58;;;;;;;;;10.00;8.67;;;;;19.41;49.01;101889.91;5056174;28;46197;-64
2022/07/06 05:19:23;;;;;;;;;7.33;7.33;;;;;19.45;49.16;101887.91;5056107;28;45478;-64
2022/07/06 05:21:49;;;;;;;;;9.00;8.00;;;;;19.50;48.72;101896.56;5063705;28;45369;-64
2022/07/06 05:24:15;;;;;;;;;7.00;6.00;;;;;19.41;49.12;101887.22;5074320;27;45368;-64
2022/07/06 05:26:41;;;;;;;;;9.67;8.00;;;;;19.47;49.51;101892.25;5065188;27;46171;-64
2022/07/06 05:29:07;;;;;;;;;8.00;7.00;;;;;19.46;49.37;101892.34;5070878;28;45521;-64
2022/07/06 05:31:32;;;;;;;;;6.00;6.00;;;;;19.46;48.99;101897.66;5076860;28;45322;-64
2022/07/06 05:33:57;;;;;;;;;11.33;10.00;;;;;19.33;49.15;101884.09;5078535;27;45416;-64
2022/07/06 05:36:23;;;;;;;;;9.00;9.00;;;;;19.34;49.72;101881.38;5096868;27;45647;-64
2022/07/06 05:38:48;;;;;;;;;9.00;8.00;;;;;19.39;49.76;101883.78;5086939;27;45456;-64
2022/07/06 05:41:13;;;;;;;;;9.00;7.67;;;;;19.33;49.53;101881.44;5076837;28;45503;-64
2022/07/06 05:43:39;;;;;;;;;7.00;7.00;;;;;19.37;49.71;101888.31;5061626;28;45449;-64
2022/07/06 05:46:04;;;;;;;;;9.00;9.00;;;;;19.42;49.23;101895.16;5056146;28;46289;-65
2022/07/06 05:51:14;;;;;;;;;9.00;9.00;;;;;19.45;49.13;101893.25;5076557;28;45497;-65
2022/07/06 05:53:39;;;;;;;;;12.00;9.67;;;;;19.49;49.37;101898.38;5075120;28;45391;-65
2022/07/06 05:56:05;;;;;;;;;8.67;8.67;;;;;19.53;49.28;101910.63;5076365;27;45828;-65
2022/07/06 05:58:30;;;;;;;;;10.00;8.00;;;;;19.51;49.11;101909.84;5075135;28;45457;-64
2022/07/06 06:00:56;;;;;;;;;11.67;11.67;;;;;19.59;48.71;101912.09;5076325;28;45383;-64
2022/07/06 06:03:21;;;;;;;;;13.00;10.00;;;;;19.58;49.23;101913.88;5072514;27;45449;-64
2022/07/06 06:05:47;;;;;;;;;9.33;9.33;;;;;19.63;49.07;101917.19;5055056;28;45363;-65
2022/07/06 06:08:12;;;;;;;;;8.67;8.33;;;;;19.62;48.88;101915.47;5055767;28;45477;-62
2022/07/06 06:10:37;;;;;;;;;11.33;10.33;;;;;-146.44;100.00;58906.56;5062875;27;45521;-60
2022/07/06 06:13:03;;;;;;;;;10.00;9.00;;;;;-146.44;100.00;58906.56;5072482;28;45609;-64
2022/07/06 06:15:29;;;;;;;;;10.00;8.33;;;;;-146.44;100.00;58906.56;5070852;27;46388;-62
2022/07/06 06:17:55;;;;;;;;;9.67;9.67;;;;;-146.44;100.00;58906.56;5090569;27;45416;-64
2022/07/06 06:20:20;;;;;;;;;11.00;8.67;;;;;-146.44;100.00;58906.56;5068806;27;45359;-64
2022/07/06 06:22:49;;;;;;;;;10.33;9.67;;;;;-146.44;100.00;58906.56;5055748;28;45350;-61
2022/07/06 06:25:16;;;;;;;;;9.00;9.00;;;;;-146.44;100.00;58906.56;5066593;28;45968;-61
2022/07/06 06:27:42;;;;;;;;;9.00;9.00;;;;;-146.44;100.00;58906.56;5058982;28;45745;-61
2022/07/06 06:30:08;;;;;;;;;9.67;9.67;;;;;-146.44;100.00;58906.56;5057315;28;45454;-60
2022/07/06 06:32:33;;;;;;;;;13.00;11.00;;;;;-146.44;100.00;58906.56;5067823;28;45707;-60
2022/07/06 06:34:59;;;;;;;;;12.00;10.67;;;;;-146.44;100.00;58906.56;5072917;27;45503;-63
2022/07/06 06:37:24;;;;;;;;;9.33;9.00;;;;;-146.44;100.00;58906.56;5059530;28;45385;-62
2022/07/06 06:39:49;;;;;;;;;8.33;8.33;;;;;-146.44;100.00;58906.56;5055128;28;46928;-60
2022/07/06 06:42:15;;;;;;;;;9.00;6.33;;;;;-146.44;100.00;58906.56;5070905;28;45441;-60
2022/07/06 06:44:40;;;;;;;;;9.67;9.67;;;;;-146.44;100.00;58906.56;5073459;27;45423;-63
2022/07/06 06:47:05;;;;;;;;;7.67;7.67;;;;;-146.44;100.00;58906.56;5074626;28;45396;-62
2022/07/06 06:49:31;;;;;;;;;10.67;10.00;;;;;-146.44;100.00;58906.56;5073299;28;45346;-63
2022/07/06 06:51:56;;;;;;;;;7.00;7.00;;;;;-146.44;100.00;58906.56;5060666;27;45478;-61
2022/07/06 06:54:21;;;;;;;;;5.00;5.00;;;;;-146.44;100.00;58906.56;5075627;27;45382;-61
2022/07/06 06:56:46;;;;;;;;;5.33;5.33;;;;;-146.44;100.00;58906.56;5075442;27;45480;-62
2022/07/06 06:59:12;;;;;;;;;7.00;7.00;;;;;-146.44;100.00;58906.56;5075428;27;45436;-61
2022/07/06 07:01:37;;;;;;;;;9.00;9.00;;;;;-146.44;100.00;58906.56;5075291;27;45360;-60
2022/07/06 07:04:03;;;;;;;;;7.67;7.33;;;;;-146.44;100.00;58906.56;5074915;27;45392;-61
2022/07/06 07:06:28;;;;;;;;;6.00;6.00;;;;;-146.44;100.00;58906.56;5075570;27;45719;-62
2022/07/06 07:08:55;;;;;;;;;6.00;6.00;;;;;-146.44;100.00;58906.56;5075385;27;45802;-62
2022/07/06 07:11:21;;;;;;;;;5.00;5.00;;;;;-146.44;100.00;58906.56;5075237;27;45577;-61
2022/07/06 07:13:46;;;;;;;;;5.00;5.00;;;;;-146.44;100.00;58906.56;5074632;27;46607;-61
2022/07/06 07:16:11;;;;;;;;;6.00;6.00;;;;;-146.44;100.00;58906.56;5074975;27;45552;-62
2022/07/06 07:18:37;;;;;;;;;10.67;8.33;;;;;-146.44;100.00;58906.56;5076950;28;45489;-62
2022/07/06 07:21:02;;;;;;;;;7.33;7.33;;;;;-146.44;100.00;58906.56;5078630;27;45479;-61
2022/07/06 07:23:28;;;;;;;;;6.00;6.00;;;;;-146.44;100.00;58906.56;5078537;27;45498;-62
2022/07/06 07:25:53;;;;;;;;;6.33;5.00;;;;;-146.44;100.00;58906.56;5078470;27;45469;-62
2022/07/06 07:28:18;;;;;;;;;8.33;6.33;;;;;-146.44;100.00;58906.56;5077139;28;45417;-61
2022/07/06 07:30:44;;;;;;;;;7.00;6.67;;;;;-146.44;100.00;58906.56;5078419;27;45383;-62
2022/07/06 07:33:09;;;;;;;;;5.67;5.67;;;;;-146.44;100.00;58906.56;5078170;27;45445;-62
2022/07/06 07:35:34;;;;;;;;;6.00;6.00;;;;;-146.44;100.00;58906.56;5078088;27;45371;-61
2022/07/06 07:38:00;;;;;;;;;6.00;6.00;;;;;-146.44;100.00;58906.56;5078367;27;45517;-61
2022/07/06 07:40:26;;;;;;;;;7.33;5.67;;;;;-146.44;100.00;58906.56;5078629;27;45536;-62
2022/07/06 07:42:52;;;;;;;;;5.00;5.00;;;;;-146.44;100.00;58906.56;5076548;28;46400;-61
2022/07/06 07:45:17;;;;;;;;;8.33;5.67;;;;;-146.44;100.00;58906.56;5077637;27;45344;-61
2022/07/06 07:47:43;;;;;;;;;5.33;5.33;;;;;-146.44;100.00;58906.56;5078244;27;45565;-61
2022/07/06 07:50:08;;;;;;;;;8.33;7.00;;;;;-146.44;100.00;58906.56;5077875;27;45385;-62
2022/07/06 07:52:34;;;;;;;;;7.00;7.00;;;;;-146.44;100.00;58906.56;5077851;27;45425;-61
2022/07/06 07:55:00;;;;;;;;;8.67;6.33;;;;;-146.44;100.00;58906.56;5078021;28;45446;-61
2022/07/06 07:57:25;;;;;;;;;8.00;7.00;;;;;-146.44;100.00;58906.56;5078006;27;45314;-61
2022/07/06 07:59:51;;;;;;;;;11.33;9.67;;;;;-146.44;100.00;58906.56;5077925;27;45412;-62
2022/07/06 08:02:16;;;;;;;;;9.33;7.67;;;;;-146.44;100.00;58906.56;5077458;27;45551;-62
2022/07/06 08:04:41;;;;;;;;;10.67;9.67;;;;;-146.44;100.00;58906.56;5077698;27;45416;-61
2022/07/06 08:07:07;;;;;;;;;8.33;8.33;;;;;-146.44;100.00;58906.56;5078030;27;45431;-61
2022/07/06 08:09:32;;;;;;;;;9.00;8.00;;;;;-146.44;100.00;58906.56;5077805;27;45456;-62
2022/07/06 08:11:58;;;;;;;;;8.00;6.33;;;;;-146.44;100.00;58906.56;5077431;27;46193;-62
2022/07/06 08:14:23;;;;;;;;;9.00;8.00;;;;;-146.44;100.00;58906.56;5077094;28;45501;-62
2022/07/06 08:16:49;;;;;;;;;7.00;7.00;;;;;-146.44;100.00;58906.56;5077604;27;45488;-62
2022/07/06 08:19:15;;;;;;;;;10.00;9.00;;;;;-146.44;100.00;58906.56;5077502;27;45496;-62
2022/07/06 08:21:40;;;;;;;;;7.33;7.00;;;;;-146.44;100.00;58906.56;5077419;27;45361;-61
2022/07/06 08:24:07;;;;;;;;;6.67;6.67;;;;;-146.44;100.00;58906.56;5077608;27;45427;-62
2022/07/06 08:26:33;;;;;;;;;7.33;6.33;;;;;-146.44;100.00;58906.56;5077404;28;45397;-61
2022/07/06 08:28:58;;;;;;;;;9.00;6.33;;;;;-146.44;100.00;58906.56;5077288;27;45425;-62
2022/07/06 08:31:24;;;;;;;;;8.67;8.00;;;;;-146.44;100.00;58906.56;5077324;27;45472;-61
2022/07/06 08:33:52;;;;;;;;;7.67;7.00;;;;;-146.44;100.00;58906.56;5077586;27;45499;-61
2022/07/06 08:36:17;;;;;;;;;9.33;7.67;;;;;-146.44;100.00;58906.56;5077501;28;45476;-61
2022/07/06 08:38:42;;;;;;;;;9.00;7.33;;;;;-146.44;100.00;58906.56;5076055;28;45405;-62
2022/07/06 08:41:09;;;;;;;;;6.00;6.00;;;;;-146.44;100.00;58906.56;5077197;27;45444;-60
2022/07/06 08:43:35;;;;;;;;;7.00;7.00;;;;;-146.44;100.00;58906.56;5077252;28;45389;-61
2022/07/06 08:46:01;;;;;;;;;9.67;8.33;;;;;-146.44;100.00;58906.56;5077059;28;45433;-61
2022/07/06 08:48:30;;;;;;;;;6.67;6.67;;;;;-146.44;100.00;58906.56;5077055;27;45622;-61
2022/07/06 08:50:56;;;;;;;;;5.00;5.00;;;;;-146.44;100.00;58906.56;5077127;27;46234;-61
2022/07/06 08:53:24;;;;;;;;;6.33;6.33;;;;;-146.44;100.00;58906.56;5076952;27;45498;-61
2022/07/06 08:55:50;;;;;;;;;8.67;7.33;;;;;-146.44;100.00;58906.56;5076978;27;45475;-61
2022/07/06 08:58:16;;;;;;;;;7.67;5.00;;;;;-146.44;100.00;58906.56;5077030;27;45371;-61
2022/07/06 09:00:42;;;;;;;;;6.67;6.67;;;;;-146.44;100.00;58906.56;5077117;27;45555;-62
2022/07/06 09:03:11;;;;;;;;;7.00;6.00;;;;;-146.44;100.00;58906.56;5076810;27;45383;-61
2022/07/06 09:05:38;;;;;;;;;8.00;7.00;;;;;-146.44;100.00;58906.56;5076896;27;45466;-61
2022/07/06 09:08:04;;;;;;;;;5.50;5.50;;;;;-146.44;100.00;58906.56;5076978;27;45467;-62
2022/07/06 09:10:29;;;;;;;;;6.00;6.00;;;;;-146.44;100.00;58906.56;5076626;27;46148;-61
2022/07/06 09:13:05;;;;;;;;;8.00;8.00;;;;;-146.44;100.00;58906.56;5076492;27;45339;-61
2022/07/06 09:15:32;;;;;;;;;5.67;5.67;;;;;-146.44;100.00;58906.56;5076657;27;45528;-61
2022/07/06 09:17:57;;;;;;;;;3.50;3.50;;;;;-146.44;100.00;58906.56;5076678;27;45528;-62
2022/07/06 09:20:23;;;;;;;;;6.00;6.00;;;;;-146.44;100.00;58906.56;5076576;27;46264;-62
2022/07/06 09:22:48;;;;;;;;;4.00;4.00;;;;;-146.44;100.00;58906.56;5076445;28;45364;-61
2022/07/06 09:25:15;;;;;;;;;4.00;3.50;;;;;-146.44;100.00;58906.56;5076566;27;45919;-62
2022/07/06 09:27:49;;;;;;;;;4.00;4.00;;;;;-146.44;100.00;58906.56;5076433;27;45513;-63
2022/07/06 09:30:16;;;;;;;;;3.00;3.00;;;;;-146.44;100.00;58906.56;5074924;28;45544;-61
2022/07/06 09:32:47;;;;;;;;;7.00;5.00;;;;;-146.44;100.00;58906.56;5076357;27;45547;-61
2022/07/06 09:35:24;;;;;;;;;5.75;4.00;;;;;-146.44;100.00;58906.56;5076639;27;45486;-62
2022/07/06 09:38:09;;;;;;;;;4.50;4.50;;;;;-146.44;100.00;58906.56;5076397;28;45412;-62
2022/07/06 09:40:37;;;;;;;;;6.00;4.75;;;;;-146.44;100.00;58906.56;5075381;27;46062;-60
2022/07/06 09:43:17;;;;;;;;;5.00;5.00;;;;;-146.44;100.00;58906.56;5092017;27;45467;-61
2022/07/06 09:45:48;;;;;;;;;4.50;4.00;;;;;-146.44;100.00;58906.56;5076461;27;45444;-60
2022/07/06 09:48:22;;;;;;;;;6.00;6.00;;;;;-146.44;100.00;58906.56;5076491;28;45615;-61
2022/07/06 09:50:54;;;;;;;;;3.00;3.00;;;;;-146.44;100.00;58906.56;5076124;27;45461;-60
2022/07/06 09:53:21;;;;;;;;;6.00;5.00;;;;;-146.44;100.00;58906.56;5076109;27;45400;-61
2022/07/06 09:55:47;;;;;;;;;6.00;6.00;;;;;-146.44;100.00;58906.56;5075782;27;45385;-61
2022/07/06 09:58:14;;;;;;;;;1.00;1.00;;;;;-146.44;100.00;58906.56;5074838;28;45647;-61
2022/07/06 10:00:40;;;;;;;;;5.33;5.33;;;;;-146.44;100.00;58906.56;5075802;28;46137;-61
2022/07/06 10:03:07;;;;;;;;;5.25;4.25;;;;;-146.44;100.00;58906.56;5075926;28;45509;-61
2022/07/06 10:05:36;;;;;;;;;4.50;4.50;;;;;-146.44;100.00;58906.56;5076178;27;45415;-61
2022/07/06 10:08:01;;;;;;;;;4.00;4.00;;;;;-146.44;100.00;58906.56;5076141;28;45429;-61
2022/07/06 10:10:29;;;;;;;;;4.00;4.00;;;;;-146.44;100.00;58906.56;5075814;27;45402;-61
2022/07/06 10:12:58;;;;;;;;;5.75;5.75;;;;;-146.44;100.00;58906.56;5074207;28;45411;-62
2022/07/06 10:15:31;;;;;;;;;4.00;4.00;;;;;-146.44;100.00;58906.56;5075613;27;45391;-61
2022/07/06 10:17:58;;;;;;;;;5.00;5.00;;;;;-146.44;100.00;58906.56;5075730;27;45571;-61
2022/07/06 10:20:27;;;;;;;;;7.25;6.50;;;;;-146.44;100.00;58906.56;5075182;28;46322;-61
2022/07/06 10:22:54;;;;;;;;;8.50;7.00;;;;;-146.44;100.00;58906.56;5075169;27;45471;-61
2022/07/06 10:25:21;;;;;;;;;5.00;5.00;;;;;-146.44;100.00;58906.56;5075447;28;45512;-60
2022/07/06 10:27:47;;;;;;;;;4.75;4.75;;;;;-146.44;100.00;58906.56;5075050;27;45432;-61
2022/07/06 10:30:15;;;;;;;;;5.75;5.00;;;;;-146.44;100.00;58906.56;5071024;28;46181;-65
2022/07/06 10:32:43;;;;;;;;;7.00;5.75;;;;;-146.44;100.00;58906.56;5058476;28;45374;-64
2022/07/06 10:35:09;;;;;;;;;3.00;3.00;;;;;-146.44;100.00;58906.56;5054921;28;45496;-61
2022/07/06 10:37:34;;;;;;;;;25.33;24.00;;;;;-146.44;100.00;58906.56;5054973;28;45420;-61
2022/07/06 10:42:49;;;;;;;;;18.67;18.00;;;;;-146.44;100.00;58906.56;5075151;28;45493;-62
2022/07/06 10:45:21;;;;;;;;;8.00;7.25;;;;;-146.44;100.00;58906.56;5058160;28;45473;-60
2022/07/06 10:47:47;;;;;;;;;6.25;6.25;;;;;-146.44;100.00;58906.56;5072969;27;45327;-60
2022/07/06 10:50:13;;;;;;;;;6.50;6.00;;;;;-146.44;100.00;58906.56;5054508;28;46076;-62
2022/07/06 10:52:48;;;;;;;;;4.25;4.25;;;;;-146.44;100.00;58906.56;5056788;28;45397;-59
2022/07/06 10:55:35;;;;;;;;;4.25;4.00;;;;;-146.44;100.00;58906.56;5073079;27;45483;-60
2022/07/06 10:58:01;;;;;;;;;8.50;5.75;;;;;-146.44;100.00;58906.56;5073633;27;45566;-60
2022/07/06 11:00:48;;;;;;;;;4.50;4.50;;;;;-146.44;100.00;58906.56;5070459;28;45480;-68
2022/07/06 11:03:33;;;;;;;;;5.50;5.50;;;;;-146.44;100.00;58906.56;5058099;28;45413;-68
2022/07/06 11:06:00;;;;;;;;;5.00;5.00;;;;;-146.44;100.00;58906.56;5065025;28;45472;-64
2022/07/06 11:08:48;;;;;;;;;6.00;6.00;;;;;-146.44;100.00;58906.56;5077165;27;45325;-67
2022/07/06 11:11:16;;;;;;;;;4.00;4.00;;;;;-146.44;100.00;58906.56;5070899;28;46140;-62
2022/07/06 11:14:07;;;;;;;;;5.00;4.00;;;;;-146.44;100.00;58906.56;5057211;28;45407;-63
2022/07/06 11:16:48;;;;;;;;;6.00;5.00;;;;;-146.44;100.00;58906.56;5057246;28;45408;-65
2022/07/06 11:19:16;;;;;;;;;7.50;7.00;;;;;-146.44;100.00;58906.56;5068318;28;45421;-62
2022/07/06 11:21:48;;;;;;;;;7.00;7.00;;;;;-146.44;100.00;58906.56;5077871;27;45986;-65